sensor_id;sensor_type;location;lat;lon;timestamp;pressure;altitude;pressure_sealevel;temperature;humidity
54329;BME280;40710;51.120;13.136;2023-01-27T00:00:39;99799.50;;;4.11;58.42
54329;BME280;40710;51.120;13.136;2023-01-27T00:03:03;99811.34;;;4.24;57.79
54329;BME280;40710;51.120;13.136;2023-01-27T00:05:28;99815.47;;;3.91;59.00
54329;BME280;40710;51.120;13.136;2023-01-27T00:07:53;99813.56;;;4.01;58.94
54329;BME280;40710;51.120;13.136;2023-01-27T00:10:19;99819.09;;;3.82;59.10
54329;BME280;40710;51.120;13.136;2023-01-27T00:12:45;99824.16;;;3.90;59.71
54329;BME280;40710;51.120;13.136;2023-01-27T00:15:30;99810.56;;;4.21;58.85
54329;BME280;40710;51.120;13.136;2023-01-27T00:17:55;99814.94;;;4.19;59.05
54329;BME280;40710;51.120;13.136;2023-01-27T00:20:20;99815.03;;;4.58;57.88
54329;BME280;40710;51.120;13.136;2023-01-27T00:23:03;99810.25;;;4.36;57.93
54329;BME280;40710;51.120;13.136;2023-01-27T00:25:46;99819.13;;;4.26;58.35
54329;BME280;40710;51.120;13.136;2023-01-27T00:28:13;99817.22;;;3.90;58.45
54329;BME280;40710;51.120;13.136;2023-01-27T00:30:46;99814.59;;;3.92;58.33
54329;BME280;40710;51.120;13.136;2023-01-27T00:33:10;99808.97;;;4.13;58.03
54329;BME280;40710;51.120;13.136;2023-01-27T00:36:01;99804.69;;;4.11;58.37
54329;BME280;40710;51.120;13.136;2023-01-27T00:38:27;99805.72;;;4.04;58.65
54329;BME280;40710;51.120;13.136;2023-01-27T00:40:52;99802.09;;;3.64;59.05
54329;BME280;40710;51.120;13.136;2023-01-27T00:43:35;99811.69;;;4.09;58.85
54329;BME280;40710;51.120;13.136;2023-01-27T00:45:59;99815.63;;;3.83;59.36
54329;BME280;40710;51.120;13.136;2023-01-27T00:48:24;99809.84;;;4.14;58.33
54329;BME280;40710;51.120;13.136;2023-01-27T00:50:49;99806.91;;;4.29;58.39
54329;BME280;40710;51.120;13.136;2023-01-27T00:53:13;99803.72;;;4.16;58.40
54329;BME280;40710;51.120;13.136;2023-01-27T00:55:38;99809.41;;;4.35;57.64
54329;BME280;40710;51.120;13.136;2023-01-27T00:58:02;99799.84;;;4.36;57.86
54329;BME280;40710;51.120;13.136;2023-01-27T01:00:27;99796.09;;;4.51;57.38
54329;BME280;40710;51.120;13.136;2023-01-27T01:02:52;99797.03;;;4.47;57.58
54329;BME280;40710;51.120;13.136;2023-01-27T01:05:16;99808.34;;;4.02;58.52
54329;BME280;40710;51.120;13.136;2023-01-27T01:07:41;99808.75;;;4.24;58.19
54329;BME280;40710;51.120;13.136;2023-01-27T01:10:05;99808.03;;;4.19;58.54
54329;BME280;40710;51.120;13.136;2023-01-27T01:12:30;99803.25;;;4.40;57.06
54329;BME280;40710;51.120;13.136;2023-01-27T01:14:55;99811.84;;;4.43;58.15
54329;BME280;40710;51.120;13.136;2023-01-27T01:17:19;99819.25;;;4.21;58.48
54329;BME280;40710;51.120;13.136;2023-01-27T01:19:44;99818.47;;;4.16;58.32
54329;BME280;40710;51.120;13.136;2023-01-27T01:22:08;99806.66;;;4.42;57.63
54329;BME280;40710;51.120;13.136;2023-01-27T01:24:33;99802.09;;;4.53;57.71
54329;BME280;40710;51.120;13.136;2023-01-27T01:26:58;99811.50;;;4.18;58.63
54329;BME280;40710;51.120;13.136;2023-01-27T01:29:22;99806.16;;;4.24;58.54
54329;BME280;40710;51.120;13.136;2023-01-27T01:31:49;99803.34;;;4.76;57.57
54329;BME280;40710;51.120;13.136;2023-01-27T01:34:14;99802.22;;;4.47;57.75
54329;BME280;40710;51.120;13.136;2023-01-27T01:36:39;99806.59;;;4.46;57.82
54329;BME280;40710;51.120;13.136;2023-01-27T01:39:03;99804.44;;;4.65;57.56
54329;BME280;40710;51.120;13.136;2023-01-27T01:41:28;99807.00;;;4.68;57.25
54329;BME280;40710;51.120;13.136;2023-01-27T01:43:52;99800.47;;;4.49;57.31
54329;BME280;40710;51.120;13.136;2023-01-27T01:46:18;99797.94;;;4.46;57.70
54329;BME280;40710;51.120;13.136;2023-01-27T01:49:00;99796.84;;;4.14;58.30
54329;BME280;40710;51.120;13.136;2023-01-27T01:51:31;99798.44;;;4.21;58.13
54329;BME280;40710;51.120;13.136;2023-01-27T01:54:03;99800.78;;;3.90;58.86
54329;BME280;40710;51.120;13.136;2023-01-27T01:59:06;99808.69;;;3.82;60.11
54329;BME280;40710;51.120;13.136;2023-01-27T02:01:32;99798.34;;;4.24;58.69
54329;BME280;40710;51.120;13.136;2023-01-27T02:04:02;99791.19;;;4.35;58.82
54329;BME280;40710;51.120;13.136;2023-01-27T02:06:28;99801.34;;;4.48;58.11
54329;BME280;40710;51.120;13.136;2023-01-27T02:08:53;99798.38;;;4.66;57.19
54329;BME280;40710;51.120;13.136;2023-01-27T02:11:18;99810.78;;;4.52;57.86
54329;BME280;40710;51.120;13.136;2023-01-27T02:13:43;99810.88;;;4.49;57.45
54329;BME280;40710;51.120;13.136;2023-01-27T02:16:09;99807.00;;;4.68;57.62
54329;BME280;40710;51.120;13.136;2023-01-27T02:18:34;99806.25;;;4.62;56.98
54329;BME280;40710;51.120;13.136;2023-01-27T02:20:59;99806.38;;;4.55;57.31
54329;BME280;40710;51.120;13.136;2023-01-27T02:23:48;99811.75;;;4.48;58.12
54329;BME280;40710;51.120;13.136;2023-01-27T02:26:31;99814.00;;;4.65;57.55
54329;BME280;40710;51.120;13.136;2023-01-27T02:29:04;99814.00;;;4.65;57.55
54329;BME280;40710;51.120;13.136;2023-01-27T02:31:29;99816.66;;;4.62;58.00
54329;BME280;40710;51.120;13.136;2023-01-27T02:34:09;99817.19;;;4.78;57.72
54329;BME280;40710;51.120;13.136;2023-01-27T02:36:42;99824.41;;;4.66;57.79
54329;BME280;40710;51.120;13.136;2023-01-27T02:39:11;99831.81;;;4.43;58.47
54329;BME280;40710;51.120;13.136;2023-01-27T02:41:44;99823.72;;;4.57;57.57
54329;BME280;40710;51.120;13.136;2023-01-27T02:44:09;99837.22;;;4.33;59.06
54329;BME280;40710;51.120;13.136;2023-01-27T02:46:34;99834.88;;;4.63;58.21
54329;BME280;40710;51.120;13.136;2023-01-27T02:48:59;99839.84;;;4.32;58.78
54329;BME280;40710;51.120;13.136;2023-01-27T02:51:24;99848.97;;;4.51;59.15
54329;BME280;40710;51.120;13.136;2023-01-27T02:53:48;99838.03;;;4.35;58.85
54329;BME280;40710;51.120;13.136;2023-01-27T02:56:13;99847.56;;;4.37;58.94
54329;BME280;40710;51.120;13.136;2023-01-27T02:58:37;99842.75;;;4.59;58.42
54329;BME280;40710;51.120;13.136;2023-01-27T03:01:03;99835.22;;;4.46;58.78
54329;BME280;40710;51.120;13.136;2023-01-27T03:03:27;99838.41;;;4.59;58.39
54329;BME280;40710;51.120;13.136;2023-01-27T03:05:52;99836.25;;;4.38;58.76
54329;BME280;40710;51.120;13.136;2023-01-27T03:08:17;99833.31;;;4.54;58.53
54329;BME280;40710;51.120;13.136;2023-01-27T03:10:42;99841.47;;;4.36;58.96
54329;BME280;40710;51.120;13.136;2023-01-27T03:13:07;99831.50;;;4.58;58.77
54329;BME280;40710;51.120;13.136;2023-01-27T03:15:31;99839.91;;;4.27;58.56
54329;BME280;40710;51.120;13.136;2023-01-27T03:18:14;99834.84;;;4.65;58.33
54329;BME280;40710;51.120;13.136;2023-01-27T03:20:39;99834.47;;;4.40;58.88
54329;BME280;40710;51.120;13.136;2023-01-27T03:23:04;99832.94;;;4.71;58.22
54329;BME280;40710;51.120;13.136;2023-01-27T03:25:29;99832.00;;;4.33;58.01
54329;BME280;40710;51.120;13.136;2023-01-27T03:27:53;99836.81;;;4.52;58.64
54329;BME280;40710;51.120;13.136;2023-01-27T03:30:18;99839.41;;;4.92;57.52
54329;BME280;40710;51.120;13.136;2023-01-27T03:32:43;99840.22;;;4.55;56.95
54329;BME280;40710;51.120;13.136;2023-01-27T03:35:17;99840.66;;;4.76;57.39
54329;BME280;40710;51.120;13.136;2023-01-27T03:37:42;99844.06;;;4.78;57.15
54329;BME280;40710;51.120;13.136;2023-01-27T03:40:26;99846.13;;;4.64;57.76
54329;BME280;40710;51.120;13.136;2023-01-27T03:43:09;99849.84;;;4.50;57.60
54329;BME280;40710;51.120;13.136;2023-01-27T03:45:52;99857.81;;;4.85;57.00
54329;BME280;40710;51.120;13.136;2023-01-27T03:48:36;99852.38;;;4.96;56.91
54329;BME280;40710;51.120;13.136;2023-01-27T03:51:04;99856.47;;;4.68;57.97
54329;BME280;40710;51.120;13.136;2023-01-27T03:53:30;99851.91;;;4.77;57.01
54329;BME280;40710;51.120;13.136;2023-01-27T03:55:54;99858.78;;;4.40;58.59
54329;BME280;40710;51.120;13.136;2023-01-27T03:58:27;99851.81;;;4.83;57.24
54329;BME280;40710;51.120;13.136;2023-01-27T04:01:01;99856.28;;;4.34;58.70
54329;BME280;40710;51.120;13.136;2023-01-27T04:03:29;99859.66;;;4.38;59.29
54329;BME280;40710;51.120;13.136;2023-01-27T04:06:16;99853.25;;;4.54;58.64
54329;BME280;40710;51.120;13.136;2023-01-27T04:09:00;99853.63;;;4.37;58.56
54329;BME280;40710;51.120;13.136;2023-01-27T04:11:25;99859.97;;;4.66;59.14
54329;BME280;40710;51.120;13.136;2023-01-27T04:14:10;99855.53;;;4.69;58.45
54329;BME280;40710;51.120;13.136;2023-01-27T04:16:35;99848.53;;;4.31;59.24
54329;BME280;40710;51.120;13.136;2023-01-27T04:19:00;99848.97;;;4.51;59.06
54329;BME280;40710;51.120;13.136;2023-01-27T04:21:25;99849.69;;;4.60;58.88
54329;BME280;40710;51.120;13.136;2023-01-27T04:23:50;99845.09;;;4.71;58.54
54329;BME280;40710;51.120;13.136;2023-01-27T04:26:15;99845.38;;;4.59;58.62
54329;BME280;40710;51.120;13.136;2023-01-27T04:28:40;99848.97;;;4.53;58.81
54329;BME280;40710;51.120;13.136;2023-01-27T04:31:04;99853.06;;;4.21;59.71
54329;BME280;40710;51.120;13.136;2023-01-27T04:33:29;99861.78;;;3.70;59.84
54329;BME280;40710;51.120;13.136;2023-01-27T04:35:54;99852.00;;;4.73;58.82
54329;BME280;40710;51.120;13.136;2023-01-27T04:38:19;99863.91;;;4.84;59.08
54329;BME280;40710;51.120;13.136;2023-01-27T04:40:44;99865.56;;;4.01;59.12
54329;BME280;40710;51.120;13.136;2023-01-27T04:43:09;99868.19;;;4.01;59.35
54329;BME280;40710;51.120;13.136;2023-01-27T04:45:33;99871.22;;;3.76;60.68
54329;BME280;40710;51.120;13.136;2023-01-27T04:47:58;99864.25;;;4.25;60.25
54329;BME280;40710;51.120;13.136;2023-01-27T04:50:22;99877.72;;;4.02;60.08
54329;BME280;40710;51.120;13.136;2023-01-27T04:52:47;99872.09;;;4.23;59.71
54329;BME280;40710;51.120;13.136;2023-01-27T04:55:11;99878.28;;;4.18;60.21
54329;BME280;40710;51.120;13.136;2023-01-27T04:57:36;99876.34;;;4.71;58.92
54329;BME280;40710;51.120;13.136;2023-01-27T05:00:01;99873.59;;;4.79;58.57
54329;BME280;40710;51.120;13.136;2023-01-27T05:02:26;99875.22;;;4.42;59.41
54329;BME280;40710;51.120;13.136;2023-01-27T05:04:50;99880.44;;;4.83;58.81
54329;BME280;40710;51.120;13.136;2023-01-27T05:07:15;99865.88;;;4.30;58.69
54329;BME280;40710;51.120;13.136;2023-01-27T05:09:39;99866.03;;;4.66;58.18
54329;BME280;40710;51.120;13.136;2023-01-27T05:12:04;99878.97;;;4.69;58.03
54329;BME280;40710;51.120;13.136;2023-01-27T05:14:28;99880.22;;;4.51;59.23
54329;BME280;40710;51.120;13.136;2023-01-27T05:16:53;99886.66;;;3.84;59.63
54329;BME280;40710;51.120;13.136;2023-01-27T05:19:18;99883.75;;;4.02;60.90
54329;BME280;40710;51.120;13.136;2023-01-27T05:21:42;99876.00;;;4.46;58.92
54329;BME280;40710;51.120;13.136;2023-01-27T05:24:09;99882.13;;;4.42;59.20
54329;BME280;40710;51.120;13.136;2023-01-27T05:26:33;99878.13;;;4.69;58.15
54329;BME280;40710;51.120;13.136;2023-01-27T05:28:58;99880.84;;;4.63;58.56
54329;BME280;40710;51.120;13.136;2023-01-27T05:31:26;99886.50;;;3.94;59.21
54329;BME280;40710;51.120;13.136;2023-01-27T05:33:53;99880.63;;;4.31;59.78
54329;BME280;40710;51.120;13.136;2023-01-27T05:36:20;99878.09;;;4.27;59.36
54329;BME280;40710;51.120;13.136;2023-01-27T05:38:45;99881.09;;;4.07;59.62
54329;BME280;40710;51.120;13.136;2023-01-27T05:41:11;99880.22;;;4.05;60.55
54329;BME280;40710;51.120;13.136;2023-01-27T05:43:39;99877.97;;;4.33;59.66
54329;BME280;40710;51.120;13.136;2023-01-27T05:46:16;99887.25;;;4.46;58.75
54329;BME280;40710;51.120;13.136;2023-01-27T05:48:44;99888.59;;;3.72;60.72
54329;BME280;40710;51.120;13.136;2023-01-27T05:51:10;99882.22;;;4.39;59.41
54329;BME280;40710;51.120;13.136;2023-01-27T05:53:35;99880.81;;;4.64;58.73
54329;BME280;40710;51.120;13.136;2023-01-27T05:56:00;99883.69;;;4.50;58.67
54329;BME280;40710;51.120;13.136;2023-01-27T05:58:25;99885.56;;;3.97;60.76
54329;BME280;40710;51.120;13.136;2023-01-27T06:00:50;99885.03;;;4.28;59.52
54329;BME280;40710;51.120;13.136;2023-01-27T06:03:14;99901.22;;;3.94;60.73
54329;BME280;40710;51.120;13.136;2023-01-27T06:05:51;99892.19;;;4.15;60.35
54329;BME280;40710;51.120;13.136;2023-01-27T06:08:16;99902.00;;;4.47;59.88
54329;BME280;40710;51.120;13.136;2023-01-27T06:10:40;99901.31;;;4.81;59.07
54329;BME280;40710;51.120;13.136;2023-01-27T06:13:05;99903.19;;;3.81;60.97
54329;BME280;40710;51.120;13.136;2023-01-27T06:15:29;99902.66;;;4.57;58.90
54329;BME280;40710;51.120;13.136;2023-01-27T06:17:54;99903.41;;;4.62;59.25
54329;BME280;40710;51.120;13.136;2023-01-27T06:20:19;99908.34;;;4.32;60.12
54329;BME280;40710;51.120;13.136;2023-01-27T06:22:43;99916.72;;;4.47;59.91
54329;BME280;40710;51.120;13.136;2023-01-27T06:25:08;99906.31;;;4.90;58.41
54329;BME280;40710;51.120;13.136;2023-01-27T06:27:32;99917.13;;;4.72;58.91
54329;BME280;40710;51.120;13.136;2023-01-27T06:29:57;99920.97;;;4.06;60.55
54329;BME280;40710;51.120;13.136;2023-01-27T06:32:21;99919.50;;;4.39;59.67
54329;BME280;40710;51.120;13.136;2023-01-27T06:34:46;99916.28;;;4.26;59.62
54329;BME280;40710;51.120;13.136;2023-01-27T06:37:10;99919.22;;;4.54;59.30
54329;BME280;40710;51.120;13.136;2023-01-27T06:39:35;99914.91;;;4.94;58.36
54329;BME280;40710;51.120;13.136;2023-01-27T06:41:59;99921.81;;;4.97;57.91
54329;BME280;40710;51.120;13.136;2023-01-27T06:44:24;99927.84;;;4.99;57.84
54329;BME280;40710;51.120;13.136;2023-01-27T06:46:48;99925.44;;;4.89;57.29
54329;BME280;40710;51.120;13.136;2023-01-27T06:49:13;99934.31;;;4.81;57.71
54329;BME280;40710;51.120;13.136;2023-01-27T06:51:38;99935.25;;;4.77;58.33
54329;BME280;40710;51.120;13.136;2023-01-27T06:54:03;99931.88;;;4.71;57.89
54329;BME280;40710;51.120;13.136;2023-01-27T06:56:28;99938.44;;;4.91;58.00
54329;BME280;40710;51.120;13.136;2023-01-27T06:58:52;99940.34;;;4.83;57.29
54329;BME280;40710;51.120;13.136;2023-01-27T07:01:17;99935.63;;;4.58;57.95
54329;BME280;40710;51.120;13.136;2023-01-27T07:03:41;99935.44;;;4.67;58.31
54329;BME280;40710;51.120;13.136;2023-01-27T07:06:06;99942.84;;;4.87;57.96
54329;BME280;40710;51.120;13.136;2023-01-27T07:08:30;99941.00;;;4.49;58.25
54329;BME280;40710;51.120;13.136;2023-01-27T07:10:55;99941.72;;;4.99;57.12
54329;BME280;40710;51.120;13.136;2023-01-27T07:13:20;99937.53;;;4.92;56.61
54329;BME280;40710;51.120;13.136;2023-01-27T07:15:45;99945.81;;;4.69;57.36
54329;BME280;40710;51.120;13.136;2023-01-27T07:18:11;99944.31;;;4.57;57.57
54329;BME280;40710;51.120;13.136;2023-01-27T07:20:37;99940.13;;;4.48;57.22
54329;BME280;40710;51.120;13.136;2023-01-27T07:23:03;99945.84;;;4.67;57.52
54329;BME280;40710;51.120;13.136;2023-01-27T07:25:31;99947.69;;;4.62;57.67
54329;BME280;40710;51.120;13.136;2023-01-27T07:27:56;99948.88;;;4.91;56.76
54329;BME280;40710;51.120;13.136;2023-01-27T07:30:21;99948.97;;;4.85;56.81
54329;BME280;40710;51.120;13.136;2023-01-27T07:32:46;99940.69;;;5.08;56.49
54329;BME280;40710;51.120;13.136;2023-01-27T07:35:10;99942.03;;;4.84;56.52
54329;BME280;40710;51.120;13.136;2023-01-27T07:37:35;99943.41;;;5.03;56.47
54329;BME280;40710;51.120;13.136;2023-01-27T07:39:59;99943.06;;;4.77;56.72
54329;BME280;40710;51.120;13.136;2023-01-27T07:42:24;99949.63;;;4.52;58.95
54329;BME280;40710;51.120;13.136;2023-01-27T07:44:48;99951.09;;;4.64;57.95
54329;BME280;40710;51.120;13.136;2023-01-27T07:47:13;99962.41;;;4.65;58.28
54329;BME280;40710;51.120;13.136;2023-01-27T07:49:38;99955.47;;;5.06;57.79
54329;BME280;40710;51.120;13.136;2023-01-27T07:52:02;99955.22;;;4.76;58.07
54329;BME280;40710;51.120;13.136;2023-01-27T07:54:27;99959.41;;;4.83;58.05
54329;BME280;40710;51.120;13.136;2023-01-27T07:56:51;99961.22;;;4.80;57.87
54329;BME280;40710;51.120;13.136;2023-01-27T07:59:16;99970.53;;;4.91;57.29
54329;BME280;40710;51.120;13.136;2023-01-27T08:01:40;99968.56;;;5.03;57.40
54329;BME280;40710;51.120;13.136;2023-01-27T08:04:06;99975.50;;;4.59;57.96
54329;BME280;40710;51.120;13.136;2023-01-27T08:06:31;99974.13;;;4.87;57.58
54329;BME280;40710;51.120;13.136;2023-01-27T08:08:55;99971.63;;;4.81;57.25
54329;BME280;40710;51.120;13.136;2023-01-27T08:11:20;99985.06;;;4.60;58.09
54329;BME280;40710;51.120;13.136;2023-01-27T08:13:45;99973.53;;;4.71;57.60
54329;BME280;40710;51.120;13.136;2023-01-27T08:16:12;99991.34;;;4.48;58.27
54329;BME280;40710;51.120;13.136;2023-01-27T08:18:37;99988.78;;;4.91;58.16
54329;BME280;40710;51.120;13.136;2023-01-27T08:21:04;99981.38;;;5.14;57.52
54329;BME280;40710;51.120;13.136;2023-01-27T08:23:29;99993.44;;;4.76;58.08
54329;BME280;40710;51.120;13.136;2023-01-27T08:25:56;99987.47;;;5.14;57.65
54329;BME280;40710;51.120;13.136;2023-01-27T08:28:24;100003.50;;;4.47;58.53
54329;BME280;40710;51.120;13.136;2023-01-27T08:30:49;100001.19;;;4.79;58.80
54329;BME280;40710;51.120;13.136;2023-01-27T08:33:17;100005.38;;;4.86;58.19
54329;BME280;40710;51.120;13.136;2023-01-27T08:35:42;100004.41;;;4.91;57.80
54329;BME280;40710;51.120;13.136;2023-01-27T08:38:08;100008.69;;;4.94;58.41
54329;BME280;40710;51.120;13.136;2023-01-27T08:40:32;100023.38;;;4.51;59.36
54329;BME280;40710;51.120;13.136;2023-01-27T08:42:57;100007.97;;;4.87;57.92
54329;BME280;40710;51.120;13.136;2023-01-27T08:45:22;100016.28;;;4.60;58.70
54329;BME280;40710;51.120;13.136;2023-01-27T08:47:47;100015.81;;;4.86;58.86
54329;BME280;40710;51.120;13.136;2023-01-27T08:50:11;100007.31;;;5.20;57.50
54329;BME280;40710;51.120;13.136;2023-01-27T08:52:36;100007.31;;;5.20;57.41
54329;BME280;40710;51.120;13.136;2023-01-27T08:55:01;100003.72;;;4.82;58.60
54329;BME280;40710;51.120;13.136;2023-01-27T08:57:26;100011.72;;;4.71;58.02
54329;BME280;40710;51.120;13.136;2023-01-27T08:59:50;100006.63;;;5.10;57.27
54329;BME280;40710;51.120;13.136;2023-01-27T09:02:15;100021.75;;;4.44;59.45
54329;BME280;40710;51.120;13.136;2023-01-27T09:04:39;100012.22;;;4.91;58.23
54329;BME280;40710;51.120;13.136;2023-01-27T09:07:07;100013.59;;;5.09;57.94
54329;BME280;40710;51.120;13.136;2023-01-27T09:09:31;100022.41;;;5.44;56.29
54329;BME280;40710;51.120;13.136;2023-01-27T09:11:56;100011.09;;;5.47;56.70
54329;BME280;40710;51.120;13.136;2023-01-27T09:14:20;100021.22;;;5.19;57.46
54329;BME280;40710;51.120;13.136;2023-01-27T09:16:45;100021.38;;;5.11;57.79
54329;BME280;40710;51.120;13.136;2023-01-27T09:19:10;100040.38;;;4.20;60.17
54329;BME280;40710;51.120;13.136;2023-01-27T09:21:34;100021.09;;;5.25;58.40
54329;BME280;40710;51.120;13.136;2023-01-27T09:23:59;100021.81;;;4.89;58.43
54329;BME280;40710;51.120;13.136;2023-01-27T09:26:24;100018.22;;;4.95;57.83
54329;BME280;40710;51.120;13.136;2023-01-27T09:28:48;100032.19;;;4.91;58.78
54329;BME280;40710;51.120;13.136;2023-01-27T09:31:13;100038.69;;;4.17;61.44
54329;BME280;40710;51.120;13.136;2023-01-27T09:33:37;100039.59;;;4.16;61.46
54329;BME280;40710;51.120;13.136;2023-01-27T09:36:08;100041.38;;;4.64;60.61
54329;BME280;40710;51.120;13.136;2023-01-27T09:38:40;100044.81;;;4.64;60.33
54329;BME280;40710;51.120;13.136;2023-01-27T09:41:20;100038.38;;;4.85;60.32
54329;BME280;40710;51.120;13.136;2023-01-27T09:44:22;100035.09;;;4.76;59.36
54329;BME280;40710;51.120;13.136;2023-01-27T09:47:07;100031.53;;;4.80;60.70
54329;BME280;40710;51.120;13.136;2023-01-27T09:55:02;100044.00;;;4.62;60.83
54329;BME280;40710;51.120;13.136;2023-01-27T10:03:25;100028.91;;;5.25;59.70
54329;BME280;40710;51.120;13.136;2023-01-27T10:06:25;100028.22;;;5.17;59.30
54329;BME280;40710;51.120;13.136;2023-01-27T10:12:15;100031.44;;;5.29;59.14
54329;BME280;40710;51.120;13.136;2023-01-27T10:18:01;100029.91;;;5.60;58.33
54329;BME280;40710;51.120;13.136;2023-01-27T10:20:43;100025.78;;;5.07;59.15
54329;BME280;40710;51.120;13.136;2023-01-27T10:26:08;100026.84;;;4.99;60.44
54329;BME280;40710;51.120;13.136;2023-01-27T10:28:36;100037.22;;;5.00;60.64
54329;BME280;40710;51.120;13.136;2023-01-27T10:31:09;100027.59;;;5.04;61.08
54329;BME280;40710;51.120;13.136;2023-01-27T10:33:54;100038.75;;;5.10;60.62
54329;BME280;40710;51.120;13.136;2023-01-27T10:36:33;100036.31;;;5.01;61.41
54329;BME280;40710;51.120;13.136;2023-01-27T10:39:35;100029.38;;;5.45;60.88
54329;BME280;40710;51.120;13.136;2023-01-27T10:42:29;100041.13;;;4.78;61.20
54329;BME280;40710;51.120;13.136;2023-01-27T10:47:54;100042.47;;;4.99;62.08
54329;BME280;40710;51.120;13.136;2023-01-27T10:50:26;100033.44;;;5.57;60.11
54329;BME280;40710;51.120;13.136;2023-01-27T10:53:14;100031.56;;;5.23;61.31
54329;BME280;40710;51.120;13.136;2023-01-27T11:01:38;100048.66;;;4.93;61.91
54329;BME280;40710;51.120;13.136;2023-01-27T11:04:13;100044.09;;;5.85;59.94
54329;BME280;40710;51.120;13.136;2023-01-27T11:06:43;100046.50;;;5.98;59.89
54329;BME280;40710;51.120;13.136;2023-01-27T11:09:22;100036.72;;;6.06;59.22
54329;BME280;40710;51.120;13.136;2023-01-27T11:11:50;100048.13;;;6.02;59.54
54329;BME280;40710;51.120;13.136;2023-01-27T11:14:24;100043.53;;;5.32;61.34
54329;BME280;40710;51.120;13.136;2023-01-27T11:16:52;100047.50;;;5.06;62.03
54329;BME280;40710;51.120;13.136;2023-01-27T11:22:22;100053.00;;;5.36;61.96
54329;BME280;40710;51.120;13.136;2023-01-27T11:25:03;100055.25;;;5.11;62.28
54329;BME280;40710;51.120;13.136;2023-01-27T11:27:58;100044.03;;;5.88;60.57
54329;BME280;40710;51.120;13.136;2023-01-27T11:30:53;100047.00;;;5.31;61.94
54329;BME280;40710;51.120;13.136;2023-01-27T11:33:30;100050.72;;;5.21;62.18
54329;BME280;40710;51.120;13.136;2023-01-27T11:36:00;100037.41;;;5.75;60.34
54329;BME280;40710;51.120;13.136;2023-01-27T11:38:25;100043.19;;;6.25;59.31
54329;BME280;40710;51.120;13.136;2023-01-27T11:40:52;100027.63;;;6.57;58.29
54329;BME280;40710;51.120;13.136;2023-01-27T11:43:20;100043.00;;;6.35;58.71
54329;BME280;40710;51.120;13.136;2023-01-27T11:45:49;100034.91;;;5.69;59.99
54329;BME280;40710;51.120;13.136;2023-01-27T11:48:17;100035.53;;;6.19;59.62
54329;BME280;40710;51.120;13.136;2023-01-27T11:50:43;100038.41;;;6.09;59.35
54329;BME280;40710;51.120;13.136;2023-01-27T11:53:13;100034.75;;;6.16;59.58
54329;BME280;40710;51.120;13.136;2023-01-27T11:55:51;100031.94;;;6.59;58.39
54329;BME280;40710;51.120;13.136;2023-01-27T11:58:32;100021.59;;;6.55;58.10
54329;BME280;40710;51.120;13.136;2023-01-27T12:01:02;100020.19;;;6.74;57.94
54329;BME280;40710;51.120;13.136;2023-01-27T12:06:17;100019.69;;;6.61;57.95
54329;BME280;40710;51.120;13.136;2023-01-27T12:08:46;100021.22;;;6.34;59.17
54329;BME280;40710;51.120;13.136;2023-01-27T12:14:10;100013.28;;;6.73;58.52
54329;BME280;40710;51.120;13.136;2023-01-27T12:16:44;100006.25;;;6.42;58.74
54329;BME280;40710;51.120;13.136;2023-01-27T12:19:26;100009.16;;;6.30;59.50
54329;BME280;40710;51.120;13.136;2023-01-27T12:21:59;100017.31;;;5.80;60.46
54329;BME280;40710;51.120;13.136;2023-01-27T12:24:35;100020.13;;;6.09;60.03
54329;BME280;40710;51.120;13.136;2023-01-27T12:27:00;100023.50;;;6.14;60.81
54329;BME280;40710;51.120;13.136;2023-01-27T12:29:39;100010.38;;;6.51;59.02
54329;BME280;40710;51.120;13.136;2023-01-27T12:32:14;100011.78;;;6.65;58.87
54329;BME280;40710;51.120;13.136;2023-01-27T12:34:45;100006.66;;;6.60;58.19
54329;BME280;40710;51.120;13.136;2023-01-27T12:37:21;100003.09;;;6.30;59.38
54329;BME280;40710;51.120;13.136;2023-01-27T12:39:54;99999.97;;;6.50;59.46
54329;BME280;40710;51.120;13.136;2023-01-27T12:45:21;99993.22;;;6.41;58.93
54329;BME280;40710;51.120;13.136;2023-01-27T12:53:22;99985.69;;;6.94;57.55
54329;BME280;40710;51.120;13.136;2023-01-27T12:58:34;99980.63;;;6.88;57.94
54329;BME280;40710;51.120;13.136;2023-01-27T13:01:03;99978.06;;;7.46;56.68
54329;BME280;40710;51.120;13.136;2023-01-27T13:03:29;99979.53;;;6.97;57.36
54329;BME280;40710;51.120;13.136;2023-01-27T13:05:57;99984.66;;;7.00;57.49
54329;BME280;40710;51.120;13.136;2023-01-27T13:08:25;99988.69;;;6.80;58.39
54329;BME280;40710;51.120;13.136;2023-01-27T13:10:57;99980.88;;;6.80;58.01
54329;BME280;40710;51.120;13.136;2023-01-27T13:13:28;99989.06;;;6.34;59.01
54329;BME280;40710;51.120;13.136;2023-01-27T13:16:01;99989.03;;;6.68;58.58
54329;BME280;40710;51.120;13.136;2023-01-27T13:18:32;99992.66;;;6.62;58.57
54329;BME280;40710;51.120;13.136;2023-01-27T13:21:07;99979.19;;;6.78;58.65
54329;BME280;40710;51.120;13.136;2023-01-27T13:23:38;99979.09;;;6.81;58.58
54329;BME280;40710;51.120;13.136;2023-01-27T13:28:48;99979.44;;;7.00;58.11
54329;BME280;40710;51.120;13.136;2023-01-27T13:31:48;99981.22;;;6.99;58.54
54329;BME280;40710;51.120;13.136;2023-01-27T13:36:58;99978.50;;;7.32;57.09
54329;BME280;40710;51.120;13.136;2023-01-27T13:39:46;99975.06;;;7.30;56.65
54329;BME280;40710;51.120;13.136;2023-01-27T13:42:21;99970.25;;;8.01;55.54
54329;BME280;40710;51.120;13.136;2023-01-27T13:44:53;99974.53;;;7.19;56.72
54329;BME280;40710;51.120;13.136;2023-01-27T13:47:26;99974.53;;;7.19;57.53
54329;BME280;40710;51.120;13.136;2023-01-27T13:50:22;99978.13;;;7.15;57.19
54329;BME280;40710;51.120;13.136;2023-01-27T13:52:52;99975.66;;;7.40;56.96
54329;BME280;40710;51.120;13.136;2023-01-27T14:03:37;99985.78;;;7.79;56.43
54329;BME280;40710;51.120;13.136;2023-01-27T14:06:24;99979.94;;;7.43;56.46
54329;BME280;40710;51.120;13.136;2023-01-27T14:09:02;99986.78;;;7.17;57.41
54329;BME280;40710;51.120;13.136;2023-01-27T14:11:50;99992.91;;;7.46;57.13